Time;durP1;ratioP1;P1;durP2;ratioP2;P2;SDS_P1;SDS_P2;PMS_P1;PMS_P2;Temp;Humidity;BMP_temperature;BMP_pressure;BME280_temperature;BME280_humidity;BME280_pressure;Samples;Min_cycle;Max_cycle;Signal;HPM_P1;HPM_P2
2023/08/14 00:01:22;;;;;;;2.67;1.42;;;16.10;99.90;;;;;;5094662;28;20048;-47
2023/08/14 00:03:47;;;;;;;2.67;1.20;;;16.10;99.90;;;;;;5096047;28;20044;-47
2023/08/14 00:06:13;;;;;;;5.43;1.30;;;16.10;99.90;;;;;;5096008;28;20043;-48
2023/08/14 00:08:39;;;;;;;2.45;1.25;;;16.10;99.90;;;;;;5095969;28;20085;-47
2023/08/14 00:11:04;;;;;;;3.45;1.50;;;16.10;99.90;;;;;;5095666;28;20047;-48
2023/08/14 00:13:47;;;;;;;3.50;1.48;;;16.10;99.90;;;;;;5095760;28;20052;-48
2023/08/14 00:16:12;;;;;;;2.88;1.50;;;16.10;99.90;;;;;;5095831;28;20097;-47
2023/08/14 00:18:38;;;;;;;2.47;1.10;;;16.10;99.90;;;;;;5095854;28;20044;-47
2023/08/14 00:21:04;;;;;;;4.37;1.53;;;16.10;99.90;;;;;;5095193;28;20070;-47
2023/08/14 00:23:29;;;;;;;3.03;1.40;;;16.00;99.90;;;;;;5094728;28;20307;-47
2023/08/14 00:25:55;;;;;;;2.22;1.15;;;16.10;99.90;;;;;;5095659;28;20050;-47
2023/08/14 00:28:20;;;;;;;2.70;1.23;;;16.00;99.90;;;;;;5095316;28;20094;-47
2023/08/14 00:30:46;;;;;;;2.65;1.38;;;16.10;99.90;;;;;;5095609;28;20393;-47
2023/08/14 00:33:12;;;;;;;2.80;1.50;;;16.00;99.90;;;;;;5094568;28;20106;-48
2023/08/14 00:35:37;;;;;;;2.83;1.30;;;16.00;99.90;;;;;;5094365;28;20044;-48
2023/08/14 00:38:03;;;;;;;4.18;1.40;;;16.10;99.90;;;;;;5095171;28;20048;-47
2023/08/14 00:40:29;;;;;;;3.25;1.35;;;16.10;99.90;;;;;;5093915;28;20063;-47
2023/08/14 00:42:54;;;;;;;2.35;1.15;;;16.10;99.90;;;;;;5093679;28;20040;-48
2023/08/14 00:45:20;;;;;;;2.38;1.20;;;16.00;99.90;;;;;;5095157;28;20044;-48
2023/08/14 00:47:47;;;;;;;2.38;1.05;;;16.00;99.90;;;;;;5094361;28;20101;-47
2023/08/14 00:50:13;;;;;;;3.47;1.20;;;15.90;99.90;;;;;;5094982;28;20048;-48
2023/08/14 00:52:43;;;;;;;2.10;0.93;;;15.90;99.90;;;;;;5094186;28;20144;-47
2023/08/14 00:55:13;;;;;;;2.38;1.20;;;15.90;99.90;;;;;;5094970;28;20040;-47
2023/08/14 00:57:38;;;;;;;1.95;1.00;;;15.80;99.90;;;;;;5094999;28;20083;-49
2023/08/14 01:00:05;;;;;;;3.35;0.98;;;15.80;99.90;;;;;;5094950;28;20152;-48
2023/08/14 01:02:33;;;;;;;3.78;1.25;;;15.80;99.90;;;;;;5093736;28;20388;-47
2023/08/14 01:04:59;;;;;;;2.60;1.30;;;15.80;99.90;;;;;;5094705;28;20047;-47
2023/08/14 01:07:24;;;;;;;2.17;1.17;;;15.80;99.90;;;;;;5094657;28;20054;-47
2023/08/14 01:09:51;;;;;;;3.42;1.20;;;15.80;99.90;;;;;;5094525;28;20105;-47
2023/08/14 01:12:37;;;;;;;4.60;1.25;;;15.80;99.90;;;;;;5093613;28;20110;-47
2023/08/14 01:15:08;;;;;;;2.00;0.95;;;15.70;99.90;;;;;;5094690;28;20040;-47
2023/08/14 01:17:37;;;;;;;1.67;0.60;;;15.70;99.90;;;;;;5095009;28;20044;-47
2023/08/14 01:20:04;;;;;;;1.38;0.63;;;15.60;99.90;;;;;;5094498;28;20055;-47
2023/08/14 01:22:49;;;;;;;1.52;0.70;;;15.50;99.90;;;;;;5094359;28;20101;-47
2023/08/14 01:25:31;;;;;;;1.50;0.77;;;15.40;99.90;;;;;;5094571;28;20043;-47
2023/08/14 01:27:58;;;;;;;1.50;0.70;;;15.40;99.90;;;;;;5094562;28;20105;-47
2023/08/14 01:30:24;;;;;;;2.03;0.98;;;15.40;99.90;;;;;;5093076;28;20095;-48
2023/08/14 01:32:51;;;;;;;2.17;0.85;;;15.30;99.90;;;;;;5093493;28;20574;-48
2023/08/14 01:35:22;;;;;;;1.70;0.77;;;15.30;99.90;;;;;;5094151;28;20126;-47
2023/08/14 01:38:23;;;;;;;2.22;0.90;;;15.30;99.90;;;;;;5094254;28;20123;-47
2023/08/14 01:41:04;;;;;;;2.10;0.98;;;15.40;99.90;;;;;;5062632;28;20095;-47
2023/08/14 01:43:33;;;;;;;1.67;0.63;;;15.30;99.90;;;;;;5093942;28;20043;-47
2023/08/14 01:45:59;;;;;;;1.80;0.77;;;15.30;99.90;;;;;;5094124;28;20493;-48
2023/08/14 01:48:25;;;;;;;1.90;0.80;;;15.20;99.90;;;;;;5092817;28;20043;-47
2023/08/14 01:50:53;;;;;;;1.83;0.80;;;15.20;99.90;;;;;;5093983;28;20054;-47
2023/08/14 01:53:19;;;;;;;2.75;1.10;;;15.20;99.90;;;;;;5093921;28;20036;-47
2023/08/14 01:55:45;;;;;;;2.78;1.10;;;15.20;99.90;;;;;;5093905;28;20540;-47
2023/08/14 01:58:10;;;;;;;2.15;1.15;;;15.30;99.90;;;;;;5093850;28;20062;-48
2023/08/14 02:00:37;;;;;;;2.33;1.17;;;15.30;99.90;;;;;;5093909;28;20518;-47
2023/08/14 02:03:03;;;;;;;2.60;1.20;;;15.30;99.90;;;;;;5093806;28;20048;-48
2023/08/14 02:05:29;;;;;;;2.97;1.20;;;15.30;99.90;;;;;;5094051;28;20131;-47
2023/08/14 02:07:55;;;;;;;2.50;1.13;;;15.30;99.90;;;;;;5092735;28;20084;-47
2023/08/14 02:10:21;;;;;;;4.03;1.10;;;15.30;99.90;;;;;;5092722;28;20071;-47
2023/08/14 02:12:47;;;;;;;3.33;0.73;;;15.30;99.90;;;;;;5093648;28;20085;-47
2023/08/14 02:15:12;;;;;;;2.25;0.82;;;15.30;99.90;;;;;;5093499;28;20441;-47
2023/08/14 02:17:38;;;;;;;1.35;0.75;;;15.20;99.90;;;;;;5094211;28;20089;-47
2023/08/14 02:20:05;;;;;;;1.63;0.65;;;15.20;99.90;;;;;;5093699;28;20044;-48
2023/08/14 02:22:30;;;;;;;1.48;0.70;;;15.10;99.90;;;;;;5093528;28;20044;-47
2023/08/14 02:24:56;;;;;;;2.25;1.00;;;15.10;99.90;;;;;;5093600;28;20051;-47
2023/08/14 02:27:22;;;;;;;1.92;0.88;;;15.00;99.90;;;;;;5093461;28;20048;-46
2023/08/14 02:29:48;;;;;;;2.78;1.00;;;15.00;99.90;;;;;;5093553;28;20048;-47
2023/08/14 02:32:13;;;;;;;2.33;1.00;;;15.00;99.90;;;;;;5093712;28;20059;-47
2023/08/14 02:34:47;;;;;;;2.17;1.00;;;15.00;99.90;;;;;;5093505;28;20278;-47
2023/08/14 02:37:15;;;;;;;2.53;1.20;;;15.00;99.90;;;;;;5093788;28;20059;-48
2023/08/14 02:39:42;;;;;;;2.45;1.17;;;15.00;99.90;;;;;;5093429;28;20064;-47
2023/08/14 02:42:08;;;;;;;2.53;1.10;;;15.00;99.90;;;;;;5093519;28;20048;-48
2023/08/14 02:44:34;;;;;;;2.15;1.00;;;15.00;99.90;;;;;;5096009;28;20497;-47
2023/08/14 02:47:01;;;;;;;2.92;1.20;;;15.00;99.90;;;;;;5097568;28;20090;-47
2023/08/14 02:49:27;;;;;;;4.50;1.45;;;15.00;99.90;;;;;;5097444;28;20048;-47
2023/08/14 02:51:53;;;;;;;2.78;1.27;;;15.00;99.90;;;;;;5097644;28;20036;-47
2023/08/14 02:54:19;;;;;;;2.97;1.20;;;15.00;99.90;;;;;;5096212;28;20130;-47
2023/08/14 02:56:44;;;;;;;3.25;1.30;;;15.00;99.90;;;;;;5097056;28;20438;-48
2023/08/14 02:59:10;;;;;;;3.23;1.33;;;15.00;99.90;;;;;;5097293;28;20044;-47
2023/08/14 03:01:36;;;;;;;2.70;1.40;;;15.10;99.90;;;;;;5097042;28;20294;-46
2023/08/14 03:04:02;;;;;;;3.35;1.30;;;15.10;99.90;;;;;;5097043;28;20278;-47
2023/08/14 03:06:29;;;;;;;3.92;1.45;;;15.10;99.90;;;;;;5096947;28;20113;-48
2023/08/14 03:08:55;;;;;;;3.08;1.58;;;15.10;99.90;;;;;;5096917;28;20055;-47
2023/08/14 03:11:22;;;;;;;3.22;1.52;;;15.10;99.90;;;;;;5096841;28;20491;-46
2023/08/14 03:13:48;;;;;;;2.92;1.38;;;15.10;99.90;;;;;;5096031;28;20044;-47
2023/08/14 03:16:13;;;;;;;3.88;1.50;;;15.10;99.90;;;;;;5096846;28;20044;-47
2023/08/14 03:18:39;;;;;;;2.67;1.30;;;15.10;99.90;;;;;;5096830;28;20052;-47
2023/08/14 03:21:05;;;;;;;2.67;1.20;;;15.10;99.90;;;;;;5095626;28;20040;-47
2023/08/14 03:23:30;;;;;;;3.47;1.73;;;15.00;99.90;;;;;;5096671;28;20384;-47
2023/08/14 03:25:56;;;;;;;4.80;1.60;;;15.00;99.90;;;;;;5095807;28;20067;-47
2023/08/14 03:28:22;;;;;;;3.40;1.40;;;15.10;99.90;;;;;;5096936;28;20039;-47
2023/08/14 03:30:49;;;;;;;3.53;1.48;;;15.00;99.90;;;;;;5096729;28;20090;-47
2023/08/14 03:33:15;;;;;;;4.03;1.70;;;15.10;99.90;;;;;;5096544;28;20380;-47
2023/08/14 03:35:41;;;;;;;4.53;1.95;;;15.10;99.90;;;;;;5096573;28;20055;-47
2023/08/14 03:38:07;;;;;;;2.73;1.60;;;15.10;99.90;;;;;;5096409;28;20079;-48
2023/08/14 03:40:32;;;;;;;4.10;1.80;;;15.10;99.90;;;;;;5096841;28;20752;-47
2023/08/14 03:42:58;;;;;;;3.40;1.58;;;15.10;99.90;;;;;;5096240;28;20044;-47
2023/08/14 03:45:23;;;;;;;3.03;1.47;;;15.00;99.90;;;;;;5096362;28;20047;-47
2023/08/14 03:47:49;;;;;;;3.13;1.50;;;15.00;99.90;;;;;;5096292;28;20282;-48
2023/08/14 03:50:15;;;;;;;4.10;1.73;;;15.00;99.90;;;;;;5095176;28;20044;-47
2023/08/14 03:52:41;;;;;;;4.05;1.98;;;15.00;99.90;;;;;;5096074;28;20463;-48
2023/08/14 03:55:07;;;;;;;4.20;1.90;;;15.00;99.90;;;;;;5094725;28;20044;-47
2023/08/14 03:57:33;;;;;;;4.32;1.55;;;15.00;99.90;;;;;;5096165;28;20479;-48
2023/08/14 03:59:59;;;;;;;3.70;1.70;;;15.10;99.90;;;;;;5096012;28;20055;-47
2023/08/14 04:02:24;;;;;;;4.78;2.08;;;15.00;99.90;;;;;;5095787;28;20052;-47
2023/08/14 04:04:50;;;;;;;4.93;2.30;;;15.00;99.90;;;;;;5094812;28;20105;-47
2023/08/14 04:07:16;;;;;;;4.03;2.13;;;15.00;99.90;;;;;;5095833;28;20406;-48
2023/08/14 04:09:41;;;;;;;6.83;2.03;;;15.00;99.90;;;;;;5094826;28;20787;-47
2023/08/14 04:12:09;;;;;;;4.60;2.22;;;15.00;99.90;;;;;;5094944;28;20052;-47
2023/08/14 04:14:34;;;;;;;4.97;2.10;;;15.00;99.90;;;;;;5096130;28;20047;-47
2023/08/14 04:17:00;;;;;;;4.05;1.92;;;15.00;99.90;;;;;;5095865;28;20410;-48
2023/08/14 04:19:27;;;;;;;5.00;2.28;;;15.00;99.90;;;;;;5095549;28;20044;-47
2023/08/14 04:21:52;;;;;;;6.55;2.60;;;15.00;99.90;;;;;;5095530;28;20396;-47
2023/08/14 04:24:18;;;;;;;4.50;2.40;;;15.00;99.90;;;;;;5095472;28;20040;-47
2023/08/14 04:26:44;;;;;;;4.95;2.50;;;15.00;99.90;;;;;;5095842;28;20092;-47
2023/08/14 04:29:10;;;;;;;4.80;2.50;;;15.00;99.90;;;;;;5095502;28;20048;-47
2023/08/14 04:31:38;;;;;;;5.60;2.50;;;15.00;99.90;;;;;;5095422;28;20098;-47
2023/08/14 04:34:04;;;;;;;5.10;2.70;;;15.10;99.90;;;;;;5095309;28;20055;-46
2023/08/14 04:36:34;;;;;;;4.65;2.30;;;15.10;99.90;;;;;;5095370;28;20131;-47
2023/08/14 04:39:01;;;;;;;5.28;2.78;;;15.10;99.90;;;;;;5095120;28;20105;-47
2023/08/14 04:41:27;;;;;;;5.82;3.25;;;15.10;99.90;;;;;;5095316;28;20530;-47
2023/08/14 04:43:54;;;;;;;5.60;2.38;;;15.20;99.90;;;;;;5095278;28;20083;-47
2023/08/14 04:46:37;;;;;;;6.00;3.25;;;15.20;99.90;;;;;;5095033;28;20044;-47
2023/08/14 04:49:04;;;;;;;6.80;2.95;;;15.20;99.90;;;;;;5095139;28;20598;-47
2023/08/14 04:51:30;;;;;;;6.03;2.97;;;15.30;99.90;;;;;;5095369;28;20093;-47
2023/08/14 04:53:57;;;;;;;;;;;15.30;99.90;;;;;;5095576;28;20055;-47
2023/08/14 04:56:23;;;;;;;6.30;3.00;;;15.30;99.90;;;;;;5094094;28;19920;-47
2023/08/14 04:58:49;;;;;;;6.45;3.15;;;15.30;99.90;;;;;;5093520;28;20044;-48
2023/08/14 05:01:15;;;;;;;8.00;3.20;;;15.40;99.90;;;;;;5094712;28;20048;-47
2023/08/14 05:03:40;;;;;;;7.43;3.20;;;15.50;99.90;;;;;;5094833;28;20391;-47
2023/08/14 05:06:06;;;;;;;6.20;3.33;;;15.50;99.90;;;;;;5093651;28;20080;-47
2023/08/14 05:08:32;;;;;;;6.55;3.40;;;15.50;99.90;;;;;;5093875;28;20390;-47
2023/08/14 05:10:58;;;;;;;7.35;3.92;;;15.60;99.90;;;;;;5094719;28;20131;-47
2023/08/14 05:13:24;;;;;;;7.82;3.42;;;15.60;99.90;;;;;;5093547;28;20040;-47
2023/08/14 05:15:51;;;;;;;9.10;4.05;;;15.70;99.90;;;;;;5094545;28;20040;-48
2023/08/14 05:18:17;;;;;;;8.48;3.85;;;15.80;99.90;;;;;;5094560;28;20101;-47
2023/08/14 05:20:43;;;;;;;;;;;15.80;99.90;;;;;;5094991;28;20352;-48
2023/08/14 05:23:10;;;;;;;8.63;3.70;;;15.80;99.90;;;;;;5094389;28;19920;-48
2023/08/14 05:25:36;;;;;;;7.47;3.78;;;15.90;99.90;;;;;;5094385;28;20047;-48
2023/08/14 05:28:03;;;;;;;9.50;3.50;;;15.90;99.90;;;;;;5094409;28;20395;-48
2023/08/14 05:30:28;;;;;;;6.57;3.60;;;16.00;99.90;;;;;;5093145;28;20059;-47
2023/08/14 05:32:54;;;;;;;6.65;3.65;;;16.00;99.90;;;;;;5094132;28;20387;-48
2023/08/14 05:35:23;;;;;;;6.60;3.65;;;16.00;99.90;;;;;;5092871;28;20044;-47
2023/08/14 05:37:55;;;;;;;6.93;3.70;;;16.00;99.90;;;;;;5093192;28;20134;-47
2023/08/14 05:40:23;;;;;;;8.48;3.38;;;16.10;99.90;;;;;;5094281;28;20093;-48
2023/08/14 05:43:04;;;;;;;9.48;4.15;;;16.10;99.90;;;;;;5094150;28;20376;-48
2023/08/14 05:45:32;;;;;;;7.78;3.83;;;16.20;99.90;;;;;;5093956;28;20047;-47
2023/08/14 05:47:58;;;;;;;8.15;3.53;;;16.20;99.90;;;;;;5093870;28;20502;-47
2023/08/14 05:50:25;;;;;;;8.00;3.53;;;16.20;99.90;;;;;;5094110;28;20040;-48
2023/08/14 05:52:51;;;;;;;6.38;3.70;;;16.30;99.90;;;;;;5094062;28;20048;-48
2023/08/14 05:55:17;;;;;;;;;;;16.30;99.90;;;;;;5094417;28;20048;-48
2023/08/14 05:57:42;;;;;;;6.72;3.45;;;16.40;99.90;;;;;;5093905;28;20264;-47
2023/08/14 06:00:12;;;;;;;6.73;3.23;;;16.40;99.90;;;;;;5093801;28;20090;-48
2023/08/14 06:02:38;;;;;;;7.35;3.58;;;16.40;99.90;;;;;;5093825;28;20353;-48
2023/08/14 06:05:04;;;;;;;5.93;3.30;;;16.50;99.90;;;;;;5093873;28;20044;-47
2023/08/14 06:07:29;;;;;;;6.22;3.03;;;16.60;99.90;;;;;;5093896;28;20050;-47
2023/08/14 06:09:55;;;;;;;7.97;3.47;;;16.60;99.90;;;;;;5092633;28;20123;-47
2023/08/14 06:12:21;;;;;;;6.10;3.58;;;16.60;99.90;;;;;;5093642;28;20036;-47
2023/08/14 06:14:46;;;;;;;6.43;3.35;;;16.70;99.90;;;;;;5093741;28;20545;-47
2023/08/14 06:17:12;;;;;;;10.10;3.78;;;16.70;99.90;;;;;;5093839;28;20055;-48
2023/08/14 06:19:38;;;;;;;5.43;2.65;;;16.80;99.90;;;;;;5096846;28;20044;-49
2023/08/14 06:22:05;;;;;;;7.35;2.80;;;16.80;99.90;;;;;;5098208;28;20055;-47
2023/08/14 06:24:30;;;;;;;7.57;2.75;;;16.80;99.90;;;;;;5097924;28;20052;-47
2023/08/14 06:26:56;;;;;;;7.78;2.83;;;16.90;99.90;;;;;;5098003;28;20384;-47
2023/08/14 06:29:22;;;;;;;7.28;3.30;;;17.00;99.90;;;;;;5097549;28;20044;-47
2023/08/14 06:31:48;;;;;;;6.68;3.05;;;17.00;99.90;;;;;;5097791;28;20083;-47
2023/08/14 06:34:13;;;;;;;4.95;2.42;;;17.00;99.90;;;;;;5097844;28;20044;-47
2023/08/14 06:36:39;;;;;;;6.03;2.70;;;17.10;99.90;;;;;;5097878;28;20474;-47
2023/08/14 06:39:05;;;;;;;7.20;2.95;;;17.20;99.90;;;;;;5097799;28;20050;-48
2023/08/14 06:41:31;;;;;;;5.60;2.90;;;17.40;99.90;;;;;;5097429;28;20677;-49
2023/08/14 06:43:57;;;;;;;8.45;3.00;;;17.50;99.90;;;;;;5097467;28;20052;-47
2023/08/14 06:46:23;;;;;;;5.80;3.33;;;17.50;99.90;;;;;;5097551;28;20050;-48
2023/08/14 06:48:48;;;;;;;6.20;2.78;;;17.50;99.90;;;;;;5097439;28;20066;-47
2023/08/14 06:51:14;;;;;;;6.65;2.50;;;17.50;99.90;;;;;;5096442;28;20479;-47
2023/08/14 06:53:40;;;;;;;6.40;2.90;;;17.50;99.90;;;;;;5097328;28;20044;-47
2023/08/14 06:56:05;;;;;;;4.47;2.50;;;17.50;99.90;;;;;;5097147;28;20051;-47
2023/08/14 06:58:31;;;;;;;6.43;2.30;;;17.50;99.90;;;;;;5097047;28;20098;-47
2023/08/14 07:00:57;;;;;;;5.90;2.55;;;17.50;99.90;;;;;;5097305;28;20039;-47
2023/08/14 07:03:23;;;;;;;5.05;2.40;;;17.50;99.90;;;;;;5097138;28;20460;-47
2023/08/14 07:05:48;;;;;;;4.43;2.20;;;17.50;99.90;;;;;;5096231;28;20131;-47
2023/08/14 07:08:14;;;;;;;5.15;2.17;;;17.50;99.90;;;;;;5096788;28;20040;-49
2023/08/14 07:10:40;;;;;;;5.57;2.28;;;17.50;99.90;;;;;;5096976;28;20051;-47
2023/08/14 07:13:06;;;;;;;4.88;2.75;;;17.50;99.90;;;;;;5096867;28;20532;-47
2023/08/14 07:15:32;;;;;;;7.22;2.60;;;17.50;99.90;;;;;;5095729;28;20396;-47
2023/08/14 07:17:58;;;;;;;7.07;3.08;;;17.50;99.90;;;;;;5096933;28;20102;-48
2023/08/14 07:20:26;;;;;;;6.90;3.00;;;17.60;99.90;;;;;;5097123;28;20055;-47
2023/08/14 07:22:52;;;;;;;6.70;3.25;;;17.60;99.90;;;;;;5096791;28;20075;-47
2023/08/14 07:25:18;;;;;;;5.47;2.85;;;17.70;99.90;;;;;;5096611;28;20059;-47
2023/08/14 07:27:44;;;;;;;6.60;3.03;;;17.70;99.90;;;;;;5096498;28;20044;-48
2023/08/14 07:30:10;;;;;;;5.00;2.55;;;17.80;99.90;;;;;;5095895;28;20396;-48
2023/08/14 07:32:36;;;;;;;4.65;2.22;;;17.90;99.90;;;;;;5079121;28;20127;-47
2023/08/14 07:35:02;;;;;;;5.97;2.42;;;17.90;99.90;;;;;;5078693;28;20470;-48
2023/08/14 07:37:28;;;;;;;5.00;2.42;;;18.00;99.90;;;;;;5096394;28;20052;-47
2023/08/14 07:39:54;;;;;;;6.47;2.85;;;18.00;99.90;;;;;;5096071;28;20143;-47
2023/08/14 07:42:19;;;;;;;6.35;2.70;;;18.10;99.90;;;;;;5096421;28;20044;-47
2023/08/14 07:44:45;;;;;;;6.53;2.50;;;18.20;99.90;;;;;;5096571;28;20467;-47
2023/08/14 07:47:12;;;;;;;5.57;2.85;;;18.20;99.90;;;;;;5095435;28;20051;-47
2023/08/14 07:49:38;;;;;;;5.72;2.58;;;18.30;99.90;;;;;;5096305;28;20052;-48
2023/08/14 07:52:05;;;;;;;5.00;2.30;;;18.30;99.90;;;;;;5096369;28;20452;-46
2023/08/14 07:54:31;;;;;;;4.38;2.28;;;18.40;99.90;;;;;;5096031;28;20043;-47
2023/08/14 07:56:57;;;;;;;7.28;2.50;;;18.40;99.90;;;;;;5095919;28;20063;-47
2023/08/14 07:59:22;;;;;;;4.05;2.17;;;18.50;99.90;;;;;;5096062;28;20559;-47
2023/08/14 08:01:49;;;;;;;3.97;2.05;;;18.50;99.90;;;;;;5095053;28;20127;-47
2023/08/14 08:04:14;;;;;;;;;;;18.60;99.90;;;;;;5095197;28;20052;-48
2023/08/14 08:06:40;;;;;;;4.40;1.80;;;18.60;99.90;;;;;;5095760;28;20336;-47
2023/08/14 08:09:07;;;;;;;4.88;1.90;;;18.60;99.90;;;;;;5095804;28;20052;-47
2023/08/14 08:11:33;;;;;;;5.75;2.08;;;18.60;99.90;;;;;;5095839;28;20479;-47
2023/08/14 08:13:59;;;;;;;4.13;1.73;;;18.60;99.90;;;;;;5095842;28;20047;-47
2023/08/14 08:16:25;;;;;;;4.15;1.88;;;18.70;99.90;;;;;;5095822;28;20052;-48
2023/08/14 08:18:50;;;;;;;3.65;1.67;;;18.70;99.90;;;;;;5096189;28;20391;-47
2023/08/14 08:21:16;;;;;;;4.22;1.65;;;18.80;99.90;;;;;;5095678;28;20047;-47
2023/08/14 08:23:42;;;;;;;5.00;2.00;;;18.80;99.90;;;;;;5094404;28;20052;-47
2023/08/14 08:26:08;;;;;;;4.55;1.90;;;18.80;99.90;;;;;;5095586;28;20518;-46
2023/08/14 08:28:33;;;;;;;4.82;2.28;;;18.80;99.90;;;;;;5095609;28;20044;-46
2023/08/14 08:30:59;;;;;;;4.65;1.50;;;18.90;99.90;;;;;;5095446;28;20055;-47
2023/08/14 08:33:25;;;;;;;6.35;2.50;;;18.90;99.90;;;;;;5095459;28;20040;-47
2023/08/14 08:35:50;;;;;;;4.40;2.10;;;19.00;99.90;;;;;;5095366;28;20070;-47
2023/08/14 08:38:18;;;;;;;3.63;1.63;;;19.00;99.90;;;;;;5095450;28;20070;-47
2023/08/14 08:40:47;;;;;;;4.55;2.15;;;19.00;99.90;;;;;;5094783;28;20071;-47
2023/08/14 08:43:14;;;;;;;4.47;1.90;;;19.10;99.90;;;;;;5095086;28;20040;-47
2023/08/14 08:45:47;;;;;;;3.90;1.80;;;19.20;99.90;;;;;;5095256;28;20040;-46
2023/08/14 08:48:16;;;;;;;4.65;2.00;;;19.30;99.90;;;;;;5095397;28;20067;-47
2023/08/14 08:50:42;;;;;;;5.25;1.30;;;19.40;99.90;;;;;;5095004;28;20047;-47
2023/08/14 08:53:08;;;;;;;;;;;19.40;99.90;;;;;;5095343;28;20072;-47
2023/08/14 08:55:34;;;;;;;4.82;1.60;;;19.50;99.90;;;;;;5095116;28;20024;-47
2023/08/14 08:58:01;;;;;;;4.65;1.27;;;19.50;99.90;;;;;;5095050;28;20048;-47
2023/08/14 09:00:27;;;;;;;4.65;1.70;;;19.60;99.90;;;;;;5094857;28;20406;-47
2023/08/14 09:02:52;;;;;;;3.95;1.60;;;19.70;99.90;;;;;;5093802;28;20047;-48
2023/08/14 09:05:19;;;;;;;2.80;1.00;;;19.70;99.90;;;;;;5094932;28;20047;-46
2023/08/14 09:07:45;;;;;;;3.65;1.27;;;19.70;99.90;;;;;;5094478;28;20048;-47
2023/08/14 09:10:10;;;;;;;4.30;1.10;;;19.80;99.90;;;;;;5093861;28;20110;-49
2023/08/14 09:12:36;;;;;;;3.80;1.10;;;19.80;99.90;;;;;;5093799;28;20056;-47
2023/08/14 09:15:08;;;;;;;4.18;1.00;;;19.90;99.90;;;;;;5094652;28;20044;-47
2023/08/14 09:17:34;;;;;;;2.65;1.10;;;19.90;99.90;;;;;;5094880;28;20127;-47
2023/08/14 09:19:59;;;;;;;2.33;1.13;;;20.00;99.90;;;;;;5094498;28;20044;-47
2023/08/14 09:22:27;;;;;;;1.85;0.90;;;20.00;99.90;;;;;;5094237;28;20097;-47
2023/08/14 09:24:53;;;;;;;2.35;0.80;;;20.00;99.90;;;;;;5093540;28;20087;-48
2023/08/14 09:27:20;;;;;;;3.28;1.15;;;20.00;99.90;;;;;;5094461;28;20048;-46
2023/08/14 09:29:46;;;;;;;2.05;0.70;;;20.10;99.90;;;;;;5094408;28;20123;-47
2023/08/14 09:32:12;;;;;;;3.28;1.08;;;20.10;99.90;;;;;;5093405;28;20589;-47
2023/08/14 09:34:37;;;;;;;2.08;0.70;;;20.10;99.90;;;;;;5092938;28;20044;-47
2023/08/14 09:37:06;;;;;;;3.05;0.80;;;20.10;99.90;;;;;;5094206;28;20051;-47
2023/08/14 09:39:32;;;;;;;2.28;0.65;;;20.10;99.90;;;;;;5093988;28;20048;-47
2023/08/14 09:41:59;;;;;;;3.05;0.73;;;20.30;99.90;;;;;;5094235;28;20380;-47
2023/08/14 09:44:25;;;;;;;3.40;1.20;;;20.30;99.90;;;;;;5094038;28;20052;-46
2023/08/14 09:46:54;;;;;;;1.92;0.82;;;20.40;99.90;;;;;;5093951;28;20052;-48
2023/08/14 09:49:20;;;;;;;2.25;0.68;;;20.50;99.90;;;;;;5093982;28;20048;-48
2023/08/14 09:51:56;;;;;;;2.92;0.80;;;20.50;99.90;;;;;;5092904;28;20070;-47
2023/08/14 09:54:33;;;;;;;1.85;0.90;;;20.50;99.90;;;;;;5093448;28;20491;-47
2023/08/14 09:56:59;;;;;;;1.90;0.88;;;20.60;99.90;;;;;;5094079;28;20148;-47
2023/08/14 09:59:28;;;;;;;3.63;0.88;;;20.70;99.90;;;;;;5093864;28;20047;-47
2023/08/14 10:01:56;;;;;;;3.30;0.77;;;20.70;99.90;;;;;;5093644;28;20433;-47
2023/08/14 10:04:23;;;;;;;2.65;0.85;;;20.80;99.90;;;;;;5092905;28;20052;-46
2023/08/14 10:06:51;;;;;;;3.85;1.00;;;20.90;99.90;;;;;;5093888;28;20054;-47
2023/08/14 10:09:21;;;;;;;2.95;0.70;;;21.00;99.90;;;;;;5093811;28;20052;-46
2023/08/14 10:11:48;;;;;;;2.60;0.70;;;21.00;99.90;;;;;;5093780;28;20048;-46
2023/08/14 10:14:19;;;;;;;2.58;0.80;;;21.10;99.90;;;;;;5093892;28;20039;-46
2023/08/14 10:16:46;;;;;;;2.38;1.00;;;21.10;99.90;;;;;;5093717;28;20053;-45
2023/08/14 10:19:13;;;;;;;2.58;0.77;;;21.20;99.90;;;;;;5092790;28;20090;-48
2023/08/14 10:21:42;;;;;;;2.38;0.80;;;21.30;99.90;;;;;;5093612;28;20055;-47
2023/08/14 10:24:08;;;;;;;1.98;0.82;;;21.40;99.90;;;;;;5093731;28;20048;-46
2023/08/14 10:26:34;;;;;;;1.98;0.63;;;21.60;99.90;;;;;;5093632;28;20499;-47
2023/08/14 10:29:01;;;;;;;1.75;0.57;;;21.70;99.90;;;;;;5093400;28;20044;-47
2023/08/14 10:31:28;;;;;;;3.28;0.80;;;21.80;99.90;;;;;;5093396;28;20059;-46
2023/08/14 10:33:58;;;;;;;2.45;1.02;;;22.00;99.90;;;;;;5093671;28;20043;-47
2023/08/14 10:36:27;;;;;;;1.20;0.55;;;22.10;99.90;;;;;;5093646;28;20054;-48
2023/08/14 10:38:53;;;;;;;2.65;0.90;;;22.20;99.90;;;;;;5093564;28;20052;-47
2023/08/14 10:41:19;;;;;;;1.63;0.73;;;22.30;99.90;;;;;;5093221;28;20063;-47
2023/08/14 10:43:50;;;;;;;1.10;0.57;;;22.30;99.90;;;;;;5093245;28;20040;-47
2023/08/14 10:46:16;;;;;;;3.00;0.60;;;22.40;99.90;;;;;;5094115;28;20403;-47
2023/08/14 10:48:44;;;;;;;2.35;0.60;;;22.40;99.90;;;;;;5093530;28;20483;-47
2023/08/14 10:51:13;;;;;;;1.15;0.50;;;22.50;99.90;;;;;;5093364;28;20094;-47
2023/08/14 10:53:40;;;;;;;3.25;0.75;;;22.70;99.90;;;;;;5093218;28;20548;-47
2023/08/14 10:56:07;;;;;;;1.73;0.50;;;22.80;99.90;;;;;;5093277;28;20047;-47
2023/08/14 10:58:35;;;;;;;2.85;0.55;;;22.80;99.90;;;;;;5093128;28;20047;-48
2023/08/14 11:01:03;;;;;;;1.77;0.50;;;22.90;99.90;;;;;;5093369;28;20087;-47
2023/08/14 11:03:31;;;;;;;2.45;0.63;;;22.90;99.90;;;;;;5093254;28;20043;-47
2023/08/14 11:05:57;;;;;;;3.05;0.60;;;23.00;99.90;;;;;;5096277;28;20403;-47
2023/08/14 11:08:23;;;;;;;3.53;0.57;;;23.20;99.90;;;;;;5097207;28;20398;-48
2023/08/14 11:10:49;;;;;;;1.63;0.60;;;23.20;99.90;;;;;;5095973;28;20055;-47
2023/08/14 11:13:16;;;;;;;2.45;0.90;;;23.30;99.90;;;;;;5097092;28;20040;-47
2023/08/14 11:15:43;;;;;;;1.15;0.60;;;23.40;99.90;;;;;;5097006;28;20499;-47
2023/08/14 11:18:10;;;;;;;1.60;0.60;;;23.50;99.90;;;;;;5097181;28;20398;-47
2023/08/14 11:20:37;;;;;;;2.08;0.57;;;23.70;99.90;;;;;;5096883;28;20089;-47
2023/08/14 11:23:04;;;;;;;3.13;0.70;;;23.70;99.90;;;;;;5096611;28;20406;-47
2023/08/14 11:25:31;;;;;;;3.15;0.70;;;23.80;99.90;;;;;;5096701;28;20083;-48
2023/08/14 11:27:57;;;;;;;4.30;0.77;;;23.80;99.90;;;;;;5096517;28;20505;-47
2023/08/14 11:30:24;;;;;;;1.20;0.50;;;23.70;99.90;;;;;;5096773;28;20377;-46
2023/08/14 11:32:51;;;;;;;5.18;0.70;;;23.50;99.90;;;;;;5095863;28;20040;-46
2023/08/14 11:35:18;;;;;;;1.83;0.60;;;23.40;99.90;;;;;;5096536;28;20123;-47
2023/08/14 11:37:46;;;;;;;2.70;0.60;;;23.30;99.90;;;;;;5096576;28;20056;-47
2023/08/14 11:40:15;;;;;;;2.10;0.70;;;23.30;99.90;;;;;;5096318;28;20099;-46
2023/08/14 11:42:42;;;;;;;1.17;0.55;;;23.40;99.90;;;;;;5096442;28;20058;-47
2023/08/14 11:45:08;;;;;;;0.98;0.50;;;23.50;99.90;;;;;;5096405;28;20048;-46
2023/08/14 11:47:36;;;;;;;2.33;0.68;;;23.60;99.90;;;;;;5095460;28;20127;-47
2023/08/14 11:50:04;;;;;;;2.97;0.57;;;23.70;99.90;;;;;;5096381;28;20048;-46
2023/08/14 11:52:30;;;;;;;1.20;0.57;;;23.80;99.90;;;;;;5095998;28;20456;-47
2023/08/14 11:54:56;;;;;;;;;;;23.90;99.90;;;;;;5095839;28;20131;-46
2023/08/14 11:57:30;;;;;;;2.20;0.55;;;24.00;99.90;;;;;;5096226;28;20283;-46
2023/08/14 11:59:57;;;;;;;2.35;0.88;;;24.10;99.90;;;;;;5096176;28;20040;-47
2023/08/14 12:02:28;;;;;;;2.75;0.50;;;24.10;99.90;;;;;;5095914;28;20044;-46
2023/08/14 12:05:00;;;;;;;1.90;0.70;;;24.00;99.90;;;;;;5095067;28;20048;-47
2023/08/14 12:07:26;;;;;;;1.52;0.57;;;24.00;99.90;;;;;;5095793;28;20437;-46
2023/08/14 12:09:56;;;;;;;4.00;0.50;;;24.10;99.90;;;;;;5096061;28;20410;-46
2023/08/14 12:12:23;;;;;;;2.25;0.95;;;24.20;99.90;;;;;;5096095;28;20047;-46
2023/08/14 12:14:50;;;;;;;1.80;0.45;;;24.30;99.90;;;;;;5078333;28;20044;-46
2023/08/14 12:17:18;;;;;;;3.47;0.73;;;24.40;99.90;;;;;;5095200;28;20052;-47
2023/08/14 12:19:54;;;;;;;1.08;0.50;;;24.50;99.90;;;;;;5094679;28;20134;-47
2023/08/14 12:22:25;;;;;;;2.72;0.63;;;24.50;99.90;;;;;;5095709;28;20040;-46
2023/08/14 12:24:52;;;;;;;2.25;0.70;;;24.40;99.90;;;;;;5077756;28;20048;-46
2023/08/14 12:27:22;;;;;;;3.30;0.70;;;24.40;99.90;;;;;;5095591;28;20052;-47
2023/08/14 12:29:49;;;;;;;3.33;0.70;;;24.40;99.90;;;;;;5095406;28;20044;-47
2023/08/14 12:32:15;;;;;;;2.00;0.60;;;24.30;99.90;;;;;;5095252;28;20119;-46
2023/08/14 12:34:40;;;;;;;;;;;24.40;99.90;;;;;;5096315;28;20048;-47
2023/08/14 12:37:07;;;;;;;2.17;0.50;;;24.40;99.90;;;;;;5095727;28;19927;-46
2023/08/14 12:39:33;;;;;;;2.00;0.50;;;24.40;99.90;;;;;;5095118;28;20406;-46
2023/08/14 12:42:00;;;;;;;1.88;0.80;;;24.40;99.90;;;;;;5095584;28;20052;-47
2023/08/14 12:44:27;;;;;;;1.83;0.77;;;24.40;99.90;;;;;;5094212;28;20127;-47
2023/08/14 12:46:53;;;;;;;2.53;0.60;;;24.50;99.90;;;;;;5095016;28;20101;-47